| time (UTC) | temp F | wind direction | speed knots | gust knots | rain 1hr in | rain 24hr in | rain mn in | humidity % | barometer mb |
| 20260503184526 | 58 | 234 | 18.2 | 0.0 | 0.00 | 0.00 | 0.00 | 46 | 985.7 |
| 20260503183534 | 58 | 237 | 18.2 | 0.0 | 0.00 | 0.00 | 0.00 | 46 | 985.7 |
| 20260503181526 | 59 | 233 | 18.2 | 0.0 | 0.00 | 0.00 | 0.00 | 52 | 986.0 |
| 20260503180053 | 58 | 234 | 18.2 | 0.0 | 0.00 | 0.00 | 0.00 | 52 | 986.0 |
| 20260503174524 | 58 | 237 | 18.2 | 0.0 | 0.00 | 0.00 | 0.00 | 48 | 986.4 |
| 20260503173044 | 58 | 234 | 18.2 | 0.0 | 0.00 | 0.00 | 0.00 | 46 | 985.8 |
| 20260503081525 | 35 | 186 | 5.2 | 0.0 | 0.00 | 0.00 | 0.00 | 66 | 986.7 |
| 20260503071525 | 35 | 161 | 3.5 | 0.0 | 0.00 | 0.00 | 0.00 | 66 | 987.0 |
| 20260503054526 | 36 | 185 | 3.5 | 0.0 | 0.00 | 0.00 | 0.00 | 69 | 988.4 |
| 20260503051525 | 36 | 167 | 3.5 | 0.0 | 0.00 | 0.00 | 0.00 | 70 | 988.7 |
| 20260503050052 | 36 | 186 | 3.5 | 0.0 | 0.00 | 0.00 | 0.00 | 70 | 988.7 |
| 20260503044525 | 36 | 186 | 3.5 | 0.0 | 0.00 | 0.00 | 0.00 | 69 | 988.9 |
| 20260503043045 | 36 | 183 | 3.5 | 0.0 | 0.00 | 0.00 | 0.00 | 72 | 988.3 |
| 20260503041526 | 37 | 189 | 3.5 | 0.0 | 0.00 | 0.00 | 0.00 | 72 | 988.3 |
| 20260503040054 | 37 | 195 | 3.5 | 0.0 | 0.00 | 0.00 | 0.00 | 72 | 988.3 |
| 20260503034525 | 37 | 196 | 3.5 | 0.0 | 0.00 | 0.00 | 0.00 | 64 | 989.5 |
| 20260503033046 | 37 | 189 | 3.5 | 0.0 | 0.00 | 0.00 | 0.00 | 66 | 989.6 |
| 20260503031525 | 38 | 189 | 3.5 | 0.0 | 0.00 | 0.00 | 0.00 | 66 | 989.6 |
| 20260503030052 | 38 | 192 | 3.5 | 0.0 | 0.00 | 0.00 | 0.00 | 66 | 989.6 |
| 20260503024525 | 39 | 201 | 2.6 | 0.0 | 0.00 | 0.00 | 0.00 | 61 | 990.4 |
| 20260503023045 | 39 | 218 | 2.6 | 0.0 | 0.00 | 0.00 | 0.00 | 66 | 990.1 |
| 20260503021525 | 39 | 229 | 4.3 | 0.0 | 0.00 | 0.00 | 0.00 | 66 | 990.0 |
| 20260503020052 | 39 | 234 | 3.5 | 0.0 | 0.00 | 0.00 | 0.00 | 66 | 990.0 |
| 20260503014525 | 40 | 241 | 4.3 | 0.0 | 0.00 | 0.00 | 0.00 | 61 | 989.5 |
| 20260503013043 | 40 | 245 | 4.3 | 0.0 | 0.00 | 0.00 | 0.00 | 61 | 989.5 |
| 20260503011525 | 41 | 235 | 4.3 | 0.0 | 0.00 | 0.00 | 0.00 | 61 | 989.5 |
| 20260503010050 | 41 | 238 | 4.3 | 0.0 | 0.00 | 0.00 | 0.00 | 61 | 989.5 |
| 20260503004525 | 42 | 240 | 4.3 | 0.0 | 0.00 | 0.00 | 0.00 | 50 | 990.2 |
| 20260503003039 | 43 | 234 | 3.5 | 0.0 | 0.00 | 0.00 | 0.00 | 50 | 990.4 |
| 20260503001525 | 44 | 239 | 2.6 | 0.0 | 0.00 | 0.00 | 0.00 | 50 | 990.4 |
| 20260503000050 | 45 | 257 | 2.6 | 0.0 | 0.00 | 0.00 | 0.00 | 50 | 990.4 |
| 20260502234526 | 45 | 277 | 4.3 | 0.0 | 0.00 | 0.00 | 0.00 | 40 | 990.2 |
| 20260502233038 | 46 | 274 | 5.2 | 0.0 | 0.00 | 0.00 | 0.00 | 41 | 990.3 |
| 20260502231526 | 46 | 275 | 7.0 | 0.0 | 0.00 | 0.00 | 0.00 | 41 | 990.3 |
| 20260502230052 | 46 | 276 | 7.8 | 0.0 | 0.00 | 0.00 | 0.00 | 41 | 990.3 |
| 20260502224525 | 47 | 275 | 8.7 | 0.0 | 0.00 | 0.00 | 0.00 | 42 | 990.7 |
| 20260502223044 | 47 | 276 | 8.7 | 0.0 | 0.00 | 0.00 | 0.00 | 40 | 991.4 |
| 20260502221526 | 47 | 276 | 9.6 | 0.0 | 0.00 | 0.00 | 0.00 | 40 | 991.4 |
| 20260502220050 | 47 | 275 | 9.6 | 0.0 | 0.00 | 0.00 | 0.00 | 40 | 991.4 |
| 20260502214526 | 47 | 277 | 10.4 | 0.0 | 0.00 | 0.00 | 0.00 | 42 | 991.5 |
| 20260502213044 | 47 | 270 | 8.7 | 0.0 | 0.00 | 0.00 | 0.00 | 43 | 991.2 |
| 20260502211526 | 47 | 266 | 8.7 | 0.0 | 0.00 | 0.00 | 0.00 | 43 | 991.1 |
| 20260502210054 | 47 | 267 | 9.6 | 0.0 | 0.00 | 0.00 | 0.00 | 43 | 991.1 |
| 20260502204525 | 47 | 263 | 9.6 | 0.0 | 0.00 | 0.00 | 0.00 | 38 | 991.6 |
| 20260502203043 | 48 | 264 | 9.6 | 0.0 | 0.00 | 0.00 | 0.00 | 37 | 992.0 |
| 20260502201525 | 47 | 269 | 9.6 | 0.0 | 0.00 | 0.00 | 0.00 | 37 | 992.0 |
| 20260502200050 | 48 | 274 | 9.6 | 0.0 | 0.00 | 0.00 | 0.00 | 37 | 992.0 |
| 20260502194525 | 47 | 279 | 9.6 | 0.0 | 0.00 | 0.00 | 0.00 | 39 | 992.3 |
| 20260502193039 | 47 | 279 | 9.6 | 0.0 | 0.00 | 0.00 | 0.00 | 39 | 992.3 |
| 20260502191526 | 47 | 276 | 10.4 | 0.0 | 0.00 | 0.00 | 0.00 | 39 | 992.3 |
| 20260502190051 | 47 | 275 | 9.6 | 0.0 | 0.00 | 0.00 | 0.00 | 39 | 992.3 |